Time;durP1;ratioP1;P1;durP2;ratioP2;P2;SDS_P1;SDS_P2;PMS_P1;PMS_P2;Temp;Humidity;BMP_temperature;BMP_pressure;BME280_temperature;BME280_humidity;BME280_pressure;Samples;Min_cycle;Max_cycle;Signal;HPM_P1;HPM_P2
2023/09/15 00:02:08;;;;;;;11.25;6.05;;;;;;;10.14;71.63;97487.03;6222939;28;20052;-70
2023/09/15 00:05:12;;;;;;;;;;;;;;;10.13;71.75;97491.41;6223163;28;20042;-69
2023/09/15 00:08:16;;;;;;;7.90;5.75;;;;;;;10.23;71.30;97487.38;6222759;28;19922;-69
2023/09/15 00:11:22;;;;;;;11.52;5.75;;;;;;;10.38;71.08;97490.13;6222576;28;20041;-70
2023/09/15 00:14:26;;;;;;;8.63;5.97;;;;;;;10.50;70.83;97492.09;6204945;28;20513;-70
2023/09/15 00:17:27;;;;;;;10.20;5.68;;;;;;;10.62;70.52;97480.06;6221821;28;20050;-70
2023/09/15 00:20:30;;;;;;;10.20;5.78;;;;;;;10.75;70.40;97489.81;6222159;28;20192;-70
2023/09/15 00:23:37;;;;;;;9.20;5.53;;;;;;;10.83;70.11;97486.75;6222991;28;20042;-70
2023/09/15 00:26:43;;;;;;;12.23;6.75;;;;;;;10.86;69.78;97480.47;6222009;28;20527;-69
2023/09/15 00:29:44;;;;;;;9.93;6.35;;;;;;;10.87;69.76;97497.94;6204124;28;20137;-69
2023/09/15 00:32:54;;;;;;;9.02;6.22;;;;;;;10.81;69.90;97490.41;6221550;28;20046;-69
2023/09/15 00:36:01;;;;;;;8.98;6.28;;;;;;;10.73;69.97;97482.97;6195856;28;20054;-69
2023/09/15 00:39:03;;;;;;;9.35;6.45;;;;;;;10.65;70.20;97488.63;6197733;28;20054;-69
2023/09/15 00:42:12;;;;;;;10.93;5.93;;;;;;;10.62;70.29;97483.53;6196490;28;20679;-70
2023/09/15 00:45:22;;;;;;;13.30;6.55;;;;;;;10.55;70.48;97484.81;6197641;28;20506;-69
2023/09/15 00:48:26;;;;;;;11.20;6.20;;;;;;;10.65;70.67;97487.78;6197436;28;20054;-69
2023/09/15 00:51:27;;;;;;;;;;;;;;;10.69;70.56;97492.78;6196513;28;20460;-69
2023/09/15 00:54:32;;;;;;;7.20;5.27;;;;;;;10.86;69.94;97491.00;6197515;28;19922;-69
2023/09/15 00:57:33;;;;;;;9.77;6.00;;;;;;;11.03;69.63;97488.25;6195629;28;20061;-69
2023/09/15 01:00:37;;;;;;;11.07;6.57;;;;;;;11.14;69.43;97485.88;6196774;28;20533;-69
2023/09/15 01:03:43;;;;;;;14.52;8.57;;;;;;;11.24;69.24;97492.31;6196777;28;20473;-69
2023/09/15 01:06:48;;;;;;;12.07;7.28;;;;;;;11.35;68.93;97493.47;6197147;28;20046;-70
2023/09/15 01:09:54;;;;;;;10.13;6.03;;;;;;;11.36;68.69;97490.75;6197199;28;20038;-69
2023/09/15 01:12:59;;;;;;;8.98;6.22;;;;;;;11.42;68.71;97498.28;6196955;28;20505;-69
2023/09/15 01:16:18;;;;;;;9.27;5.97;;;;;;;11.42;68.88;97497.44;6196910;28;20049;-69
2023/09/15 01:19:31;;;;;;;8.85;6.20;;;;;;;11.35;69.16;97498.72;6196339;28;20046;-69
2023/09/15 01:23:12;;;;;;;10.32;6.10;;;;;;;11.26;69.42;97505.38;6199277;28;20050;-69
2023/09/15 01:26:16;;;;;;;12.85;6.15;;;;;;;11.12;69.65;97503.53;6198161;28;20489;-69
2023/09/15 01:29:44;;;;;;;17.35;9.30;;;;;;;11.05;70.21;97507.47;6194879;28;20415;-69
2023/09/15 01:32:46;;;;;;;9.75;5.95;;;;;;;10.91;70.59;97505.59;6196352;28;20057;-69
2023/09/15 01:35:53;;;;;;;10.95;6.47;;;;;;;10.73;70.60;97490.84;6194944;28;20058;-69
2023/09/15 01:38:54;;;;;;;12.07;6.80;;;;;;;10.68;71.33;97504.25;6195228;28;20070;-69
2023/09/15 01:41:58;;;;;;;10.85;6.22;;;;;;;10.62;71.41;97501.97;6196102;28;20042;-69
2023/09/15 01:44:59;;;;;;;12.30;6.30;;;;;;;10.57;71.77;97506.63;6196199;28;20337;-69
2023/09/15 01:48:05;;;;;;;11.07;5.57;;;;;;;10.51;71.98;97506.97;6196043;28;20038;-69
2023/09/15 01:51:10;;;;;;;8.38;5.50;;;;;;;10.48;72.06;97510.63;6196206;28;20065;-68
2023/09/15 01:54:15;;;;;;;12.20;5.93;;;;;;;10.47;72.18;97522.09;6196071;28;20042;-69
2023/09/15 01:57:22;;;;;;;12.07;5.97;;;;;;;10.44;72.23;97524.00;6195736;28;20054;-68
2023/09/15 02:00:23;;;;;;;13.23;6.40;;;;;;;10.43;72.38;97524.94;6195451;28;20050;-68
2023/09/15 02:03:27;;;;;;;;;;;;;;;10.37;72.47;97531.38;6196346;28;20050;-69
2023/09/15 02:06:28;;;;;;;12.63;6.20;;;;;;;10.42;72.35;97529.38;6195441;28;19922;-69
2023/09/15 02:09:29;;;;;;;10.68;6.32;;;;;;;10.44;72.25;97522.22;6195567;28;20047;-69
2023/09/15 02:12:31;;;;;;;12.23;6.07;;;;;;;10.46;72.26;97516.88;6195026;28;20046;-70
2023/09/15 02:15:35;;;;;;;13.70;6.95;;;;;;;10.46;72.32;97522.16;6195262;28;20057;-69
2023/09/15 02:18:43;;;;;;;11.27;5.90;;;;;;;10.52;72.13;97529.72;6195648;28;20046;-69
2023/09/15 02:21:44;;;;;;;13.05;6.03;;;;;;;10.61;72.19;97523.94;6195788;28;20049;-71
2023/09/15 02:24:46;;;;;;;11.27;6.28;;;;;;;10.65;72.00;97524.63;6195480;28;20043;-70
2023/09/15 02:27:50;;;;;;;15.48;8.00;;;;;;;10.79;71.77;97530.84;6195869;28;20057;-70
2023/09/15 02:30:55;;;;;;;14.05;6.03;;;;;;;10.93;71.36;97529.22;6195473;28;20038;-69
2023/09/15 02:34:00;;;;;;;40.03;22.23;;;;;;;11.08;70.72;97533.63;6201758;28;20058;-69
2023/09/15 02:37:06;;;;;;;19.80;9.38;;;;;;;11.13;70.39;97531.59;6219653;28;20050;-70
2023/09/15 02:40:13;;;;;;;13.88;6.75;;;;;;;11.30;70.09;97529.78;6220177;28;20045;-68
2023/09/15 02:43:17;;;;;;;8.02;5.60;;;;;;;11.40;69.77;97534.41;6203327;28;20050;-69
2023/09/15 02:46:22;;;;;;;9.77;5.68;;;;;;;11.50;69.47;97529.47;6219203;28;20042;-68
2023/09/15 02:49:23;;;;;;;11.77;5.63;;;;;;;11.65;69.29;97531.22;6218993;28;20513;-68
2023/09/15 02:52:31;;;;;;;12.35;6.57;;;;;;;11.80;68.88;97536.50;6219493;28;20058;-69
2023/09/15 02:55:37;;;;;;;14.45;6.20;;;;;;;11.98;68.48;97540.75;6222637;28;20462;-68
2023/09/15 02:58:39;;;;;;;15.57;6.15;;;;;;;12.16;67.85;97537.94;6222862;28;20054;-69
2023/09/15 03:01:43;;;;;;;15.57;6.38;;;;;;;12.31;67.42;97537.84;6223973;28;20045;-69
2023/09/15 03:04:46;;;;;;;16.02;6.18;;;;;;;12.48;66.93;97534.19;6224144;28;20132;-69
2023/09/15 03:07:51;;;;;;;16.15;5.82;;;;;;;12.68;66.53;97529.41;6223457;28;20441;-69
2023/09/15 03:10:56;;;;;;;14.35;7.50;;;;;;;12.95;66.06;97543.53;6223431;28;20061;-69
2023/09/15 03:14:00;;;;;;;19.10;6.90;;;;;;;13.09;65.49;97544.44;6206312;28;20429;-69
2023/09/15 03:17:04;;;;;;;20.70;7.85;;;;;;;13.15;65.21;97549.34;6223610;28;20050;-69
2023/09/15 03:20:19;;;;;;;18.80;6.88;;;;;;;13.19;65.23;97550.81;6222275;28;20053;-69
2023/09/15 03:23:22;;;;;;;23.30;7.88;;;;;;;13.24;65.12;97552.22;6223813;28;20042;-69
2023/09/15 03:26:31;;;;;;;17.80;8.63;;;;;;;13.27;64.88;97559.13;6223576;28;20050;-69
2023/09/15 03:29:32;;;;;;;16.92;8.43;;;;;;;13.20;65.36;97555.19;6205545;28;20465;-69
2023/09/15 03:32:36;;;;;;;17.67;7.50;;;;;;;13.13;65.06;97556.50;6223136;28;20045;-69
2023/09/15 03:35:38;;;;;;;23.20;9.10;;;;;;;13.00;65.58;97553.81;6222949;28;20568;-68
2023/09/15 03:38:40;;;;;;;18.00;8.65;;;;;;;12.98;66.04;97564.47;6222694;28;20053;-68
2023/09/15 03:41:43;;;;;;;17.00;7.53;;;;;;;12.94;66.14;97568.25;6223295;28;20046;-68
2023/09/15 03:44:44;;;;;;;25.15;8.38;;;;;;;12.88;66.29;97568.66;6223140;28;20386;-69
2023/09/15 03:47:50;;;;;;;28.92;9.45;;;;;;;12.82;66.59;97563.72;6223264;28;20050;-69
2023/09/15 03:50:55;;;;;;;28.48;10.90;;;;;;;12.79;66.72;97570.09;6223040;28;20046;-68
2023/09/15 03:53:56;;;;;;;22.55;9.38;;;;;;;12.86;66.57;97565.25;6222945;28;20509;-68
2023/09/15 03:57:03;;;;;;;22.30;9.50;;;;;;;12.95;66.51;97564.66;6222937;28;20058;-72
2023/09/15 04:00:06;;;;;;;26.67;8.98;;;;;;;13.20;65.87;97573.69;6222409;28;20528;-69
2023/09/15 04:03:11;;;;;;;25.67;9.50;;;;;;;13.42;65.40;97567.88;6222834;28;20493;-69
2023/09/15 04:06:16;;;;;;;25.83;10.07;;;;;;;13.62;64.98;97567.41;6221474;28;20049;-69
2023/09/15 04:09:20;;;;;;;30.17;10.50;;;;;;;13.75;64.53;97569.25;6222740;28;20505;-70
2023/09/15 04:12:21;;;;;;;22.83;9.70;;;;;;;13.87;64.17;97568.41;6222601;28;20509;-68
2023/09/15 04:15:23;;;;;;;22.33;9.15;;;;;;;13.98;63.82;97570.34;6222217;28;20045;-71
2023/09/15 04:18:24;;;;;;;22.45;9.75;;;;;;;14.08;63.67;97571.44;6222354;28;20050;-70
2023/09/15 04:21:28;;;;;;;23.40;12.13;;;;;;;14.17;63.14;97565.50;6222935;28;20046;-68
2023/09/15 04:24:30;;;;;;;23.08;10.95;;;;;;;14.27;62.93;97571.88;6187741;28;20053;-70
2023/09/15 04:27:36;;;;;;;18.00;8.80;;;;;;;14.37;62.62;97567.63;6222272;28;20049;-68
2023/09/15 04:30:40;;;;;;;23.02;9.77;;;;;;;14.52;62.56;97570.19;6204146;28;20049;-69
2023/09/15 04:33:41;;;;;;;15.32;8.35;;;;;;;14.63;62.25;97566.78;6204142;28;20049;-71
2023/09/15 04:36:45;;;;;;;21.25;8.88;;;;;;;14.78;62.01;97566.56;6221795;28;20074;-69
2023/09/15 04:39:53;;;;;;;21.67;9.60;;;;;;;14.98;61.97;97567.81;6221907;28;20038;-70
2023/09/15 04:43:02;;;;;;;20.98;9.32;;;;;;;15.12;61.54;97556.22;6220305;28;20506;-70
2023/09/15 04:46:04;;;;;;;18.80;9.10;;;;;;;15.35;61.19;97564.28;6219509;28;20045;-68
2023/09/15 04:49:09;;;;;;;22.90;8.27;;;;;;;15.56;60.83;97557.38;6204415;28;20088;-69
2023/09/15 04:52:12;;;;;;;17.02;7.15;;;;;;;15.73;60.42;97560.63;6221569;28;20394;-70
2023/09/15 04:55:14;;;;;;;16.67;7.75;;;;;;;15.94;59.82;97556.38;6221354;28;20577;-69
2023/09/15 04:58:18;;;;;;;13.15;7.03;;;;;;;16.13;59.35;97561.94;6220021;28;20140;-68
2023/09/15 05:01:19;;;;;;;18.58;7.28;;;;;;;16.34;58.64;97571.91;6203336;28;20057;-71
2023/09/15 05:04:23;;;;;;;;;;;;;;;16.53;58.45;97571.31;6204107;28;20041;-69
2023/09/15 05:07:31;;;;;;;17.58;7.38;;;;;;;16.68;57.83;97571.94;6221200;28;19925;-70
2023/09/15 05:10:33;;;;;;;21.75;8.05;;;;;;;16.83;57.24;97570.75;6202985;28;20132;-70
2023/09/15 05:13:38;;;;;;;;;;;;;;;17.04;57.15;97569.06;6221442;28;20038;-68
2023/09/15 05:16:41;;;;;;;19.88;9.55;;;;;;;17.20;56.01;97566.00;6220817;28;19936;-69
2023/09/15 05:19:47;;;;;;;23.52;11.27;;;;;;;17.41;55.26;97565.22;6220094;28;20065;-69
2023/09/15 05:22:50;;;;;;;24.38;10.90;;;;;;;17.69;54.96;97566.47;6220703;28;20050;-69
2023/09/15 05:25:55;;;;;;;23.85;11.18;;;;;;;20.63;48.87;97577.81;6221255;28;20432;-69
2023/09/15 05:28:59;;;;;;;24.92;12.18;;;;;;;25.53;39.94;97575.88;6203735;28;20052;-69
2023/09/15 05:32:00;;;;;;;20.88;11.40;;;;;;;29.89;33.04;97581.34;6220767;28;20048;-69
2023/09/15 05:35:06;;;;;;;24.17;11.82;;;;;;;33.28;28.08;97584.66;6220483;28;20152;-69
2023/09/15 05:38:11;;;;;;;25.08;12.00;;;;;;;36.01;24.34;97586.53;6219382;28;20061;-68
2023/09/15 05:41:15;;;;;;;23.17;12.13;;;;;;;38.19;22.08;97583.72;6220610;28;20050;-70
2023/09/15 05:44:21;;;;;;;28.75;12.75;;;;;;;40.07;19.71;97583.28;6220218;28;20042;-68
2023/09/15 05:47:30;;;;;;;31.30;13.20;;;;;;;41.49;17.87;97584.38;6220481;28;20293;-68
2023/09/15 05:50:39;;;;;;;21.98;12.65;;;;;;;43.09;16.50;97593.31;6220098;28;20054;-68
2023/09/15 05:53:42;;;;;;;25.95;12.00;;;;;;;43.97;15.33;97580.13;6220140;28;20428;-69
2023/09/15 05:56:47;;;;;;;24.50;12.50;;;;;;;44.46;14.87;97592.69;6219845;28;20042;-68
2023/09/15 05:59:51;;;;;;;23.23;12.48;;;;;;;45.43;13.89;97579.88;6218162;28;20053;-69
2023/09/15 06:02:55;;;;;;;22.35;11.93;;;;;;;46.49;13.14;97583.44;6219916;28;20050;-69
2023/09/15 06:06:02;;;;;;;25.10;11.65;;;;;;;47.57;12.12;97592.59;6219395;28;20060;-69
2023/09/15 06:09:05;;;;;;;25.52;13.80;;;;;;;48.74;11.86;97584.50;6220010;28;20061;-70
2023/09/15 06:12:09;;;;;;;23.50;13.10;;;;;;;49.19;11.39;97584.91;6219966;28;20046;-68
2023/09/15 06:15:16;;;;;;;29.15;14.23;;;;;;;49.64;11.00;97580.81;6220007;28;20448;-67
2023/09/15 06:18:20;;;;;;;25.00;12.98;;;;;;;49.79;10.76;97569.00;6219777;28;20037;-68
2023/09/15 06:21:24;;;;;;;25.77;12.43;;;;;;;50.33;10.16;97573.91;6219877;28;20042;-68
2023/09/15 06:24:25;;;;;;;24.05;12.70;;;;;;;50.38;10.02;97567.28;6219466;28;20505;-67
2023/09/15 06:27:26;;;;;;;21.65;10.45;;;;;;;49.75;10.03;97562.47;6219443;28;20057;-67
2023/09/15 06:30:29;;;;;;;18.45;10.73;;;;;;;49.70;10.11;97559.88;6217633;28;20128;-68
2023/09/15 06:33:35;;;;;;;19.30;9.45;;;;;;;50.33;9.90;97555.13;6218642;28;20088;-68
2023/09/15 06:36:40;;;;;;;21.48;9.35;;;;;;;51.28;9.38;97572.13;6219529;28;20446;-68
2023/09/15 06:39:43;;;;;;;20.30;8.98;;;;;;;51.68;9.31;97562.25;6219621;28;20042;-68
2023/09/15 06:42:48;;;;;;;16.63;9.15;;;;;;;52.19;9.07;97566.22;6219784;28;20038;-68
2023/09/15 06:45:55;;;;;;;16.80;7.75;;;;;;;52.43;8.49;97556.91;6219512;28;20045;-68
2023/09/15 06:48:59;;;;;;;18.95;7.78;;;;;;;52.69;8.03;97562.09;6219599;28;20049;-68
2023/09/15 06:52:03;;;;;;;20.88;8.27;;;;;;;51.98;8.34;97549.56;6219690;28;20042;-69
2023/09/15 06:55:07;;;;;;;18.83;8.00;;;;;;;50.72;8.93;97550.16;6219609;28;20041;-68
2023/09/15 06:58:13;;;;;;;13.05;7.63;;;;;;;51.24;8.49;97548.75;6219675;28;20038;-68
2023/09/15 07:01:17;;;;;;;15.32;7.93;;;;;;;52.18;8.10;97550.56;6219053;28;20046;-68
2023/09/15 07:04:18;;;;;;;12.18;7.70;;;;;;;52.51;7.65;97543.88;6218586;28;20546;-68
2023/09/15 07:07:22;;;;;;;15.38;7.05;;;;;;;51.68;8.09;97534.19;6218527;28;20057;-68
2023/09/15 07:10:24;;;;;;;12.82;6.88;;;;;;;52.37;8.30;97543.47;6201266;28;20053;-68
2023/09/15 07:13:28;;;;;;;14.27;6.53;;;;;;;53.31;7.21;97542.00;6218684;28;20046;-68
2023/09/15 07:16:37;;;;;;;12.48;5.53;;;;;;;53.76;7.19;97541.50;6219261;28;20042;-68
2023/09/15 07:19:47;;;;;;;9.32;4.50;;;;;;;53.81;7.44;97546.03;6219224;28;20072;-68
2023/09/15 07:22:51;;;;;;;8.75;4.90;;;;;;;53.24;7.45;97541.84;6201854;28;20464;-68
2023/09/15 07:25:55;;;;;;;8.98;4.35;;;;;;;52.95;7.45;97525.03;6218299;28;20057;-68
2023/09/15 07:28:59;;;;;;;7.80;4.07;;;;;;;52.99;7.23;97507.44;6201021;28;20050;-68
2023/09/15 07:32:04;;;;;;;7.20;4.00;;;;;;;53.70;7.47;97531.72;6219051;28;20505;-68
2023/09/15 07:35:12;;;;;;;9.30;3.60;;;;;;;53.48;6.87;97526.75;6218657;28;20079;-68
2023/09/15 07:38:18;;;;;;;8.18;3.50;;;;;;;53.51;7.09;97523.19;6219139;28;20046;-68
2023/09/15 07:41:24;;;;;;;6.30;3.60;;;;;;;53.40;7.16;97520.97;6221359;28;20053;-68
2023/09/15 07:44:33;;;;;;;6.10;2.90;;;;;;;53.33;7.26;97508.69;6223454;28;20488;-67
2023/09/15 07:47:37;;;;;;;9.40;3.95;;;;;;;52.84;7.41;97512.69;6222447;28;21001;-68
2023/09/15 07:50:46;;;;;;;5.57;3.40;;;;;;;51.53;7.48;97511.28;6223131;28;20133;-69
2023/09/15 07:53:50;;;;;;;7.10;4.28;;;;;;;50.94;7.80;97503.28;6222225;28;20049;-69
2023/09/15 07:56:54;;;;;;;7.30;4.05;;;;;;;49.85;8.62;97505.28;6222418;28;20046;-67
2023/09/15 08:00:00;;;;;;;7.03;3.60;;;;;;;49.95;8.25;97492.91;6222818;28;20050;-67
2023/09/15 08:03:01;;;;;;;9.32;3.63;;;;;;;50.85;7.84;97491.34;6222300;28;20049;-69
2023/09/15 08:06:07;;;;;;;9.25;3.70;;;;;;;49.34;8.51;97488.50;6222636;28;20420;-69
2023/09/15 08:09:15;;;;;;;7.55;4.10;;;;;;;47.11;9.61;97481.56;6222683;28;20073;-69
2023/09/15 08:12:19;;;;;;;6.78;4.10;;;;;;;43.72;11.50;97468.44;6222478;28;20042;-67
2023/09/15 08:15:25;;;;;;;6.65;4.15;;;;;;;40.75;13.55;97452.63;6205142;28;20513;-68
2023/09/15 08:18:31;;;;;;;8.00;4.28;;;;;;;38.33;15.37;97449.41;6222429;28;20089;-68
2023/09/15 08:21:35;;;;;;;9.50;5.10;;;;;;;36.72;16.88;97440.81;6204952;28;20053;-69
2023/09/15 08:24:39;;;;;;;8.40;5.13;;;;;;;36.59;17.22;97442.84;6222307;28;20058;-69
2023/09/15 08:27:44;;;;;;;8.75;5.22;;;;;;;38.83;15.58;97450.88;6221359;28;20144;-69
2023/09/15 08:30:50;;;;;;;4.88;3.08;;;;;;;40.45;13.66;97454.28;6221309;28;20050;-68
2023/09/15 08:33:52;;;;;;;5.80;2.63;;;;;;;41.90;12.35;97451.56;6220968;28;20049;-69
2023/09/15 08:36:57;;;;;;;3.50;2.55;;;;;;;41.88;12.54;97456.50;6221898;28;20060;-69
2023/09/15 08:40:05;;;;;;;6.55;3.72;;;;;;;41.28;12.83;97453.00;6221999;28;20046;-69
2023/09/15 08:43:13;;;;;;;11.25;4.68;;;;;;;40.13;13.85;97443.53;6221491;28;20133;-69
2023/09/15 08:46:18;;;;;;;14.32;5.07;;;;;;;38.70;15.13;97445.84;6220961;28;20073;-69
2023/09/15 08:49:23;;;;;;;9.23;5.05;;;;;;;37.64;15.96;97433.72;6220908;28;20073;-70
2023/09/15 08:52:28;;;;;;;6.88;4.72;;;;;;;37.03;16.66;97437.44;6219598;28;20557;-69
2023/09/15 08:55:32;;;;;;;11.38;5.43;;;;;;;36.79;16.76;97433.22;6220708;28;20053;-69
2023/09/15 08:58:36;;;;;;;6.82;4.15;;;;;;;37.15;16.60;97425.50;6221342;28;20038;-69
2023/09/15 09:01:38;;;;;;;5.85;3.80;;;;;;;38.44;15.41;97436.59;6220432;28;20533;-68
2023/09/15 09:04:42;;;;;;;10.65;4.22;;;;;;;39.34;14.97;97431.84;6220523;28;20538;-69
2023/09/15 09:07:50;;;;;;;9.40;4.75;;;;;;;40.84;13.73;97431.59;6220518;28;20062;-69
2023/09/15 09:10:54;;;;;;;14.10;5.82;;;;;;;41.88;13.41;97439.91;6221009;28;20049;-69
2023/09/15 09:14:00;;;;;;;10.55;5.85;;;;;;;40.94;13.79;97434.34;6220139;28;20414;-69
2023/09/15 09:17:02;;;;;;;8.60;5.82;;;;;;;38.54;15.26;97431.19;6220089;28;20054;-68
2023/09/15 09:20:21;;;;;;;8.75;4.53;;;;;;;36.72;17.08;97425.19;6220754;28;20038;-69
2023/09/15 09:23:25;;;;;;;8.50;4.70;;;;;;;35.36;18.50;97420.75;6220487;28;20045;-69
2023/09/15 09:26:29;;;;;;;7.00;4.40;;;;;;;35.98;18.04;97418.03;6202657;28;20058;-70
2023/09/15 09:29:34;;;;;;;9.43;3.70;;;;;;;36.99;17.05;97422.50;6219834;28;20069;-68
2023/09/15 09:32:40;;;;;;;7.22;3.20;;;;;;;38.31;15.94;97427.72;6220327;28;20168;-69
2023/09/15 09:35:45;;;;;;;7.20;3.13;;;;;;;40.14;14.50;97404.69;6198202;28;20061;-69
2023/09/15 09:38:53;;;;;;;9.60;4.13;;;;;;;40.89;13.90;97431.59;6194764;28;20534;-69
2023/09/15 09:41:57;;;;;;;6.63;3.55;;;;;;;41.04;13.94;97426.00;6195123;28;20089;-70
2023/09/15 09:45:05;;;;;;;7.03;3.85;;;;;;;41.02;13.77;97425.47;6195910;28;20042;-68
2023/09/15 09:48:13;;;;;;;10.85;4.95;;;;;;;39.71;14.54;97417.88;6195742;28;20054;-69
2023/09/15 09:51:17;;;;;;;7.63;4.22;;;;;;;38.21;15.51;97413.88;6195106;28;20112;-70
2023/09/15 09:54:24;;;;;;;7.35;4.68;;;;;;;36.94;16.54;97411.47;6195580;28;20057;-69
2023/09/15 09:57:26;;;;;;;8.75;4.38;;;;;;;35.19;17.89;97401.53;6195439;28;20050;-69
2023/09/15 10:00:33;;;;;;;10.20;4.30;;;;;;;34.69;18.54;97402.13;6195224;28;20053;-69
2023/09/15 10:03:37;;;;;;;14.80;8.85;;;;;;;33.64;19.43;97386.53;6194221;28;20046;-69
2023/09/15 10:06:42;;;;;;;10.93;5.38;;;;;;;32.30;20.74;97392.81;6195218;28;20053;-70
2023/09/15 10:09:45;;;;;;;7.95;5.22;;;;;;;31.44;21.48;97388.88;6195185;28;20709;-70
2023/09/15 10:12:47;;;;;;;8.45;5.28;;;;;;;30.73;21.63;97384.41;6195154;28;20062;-70
2023/09/15 10:15:50;;;;;;;11.55;5.88;;;;;;;30.05;22.79;97395.63;6195511;28;20521;-69
2023/09/15 10:18:56;;;;;;;11.13;6.38;;;;;;;29.29;23.07;97390.53;6195603;28;20042;-69
2023/09/15 10:22:00;;;;;;;11.65;6.15;;;;;;;28.81;24.09;97387.88;6195094;28;20050;-69
2023/09/15 10:25:04;;;;;;;12.48;7.85;;;;;;;28.53;24.22;97377.97;6195610;28;20093;-69
2023/09/15 10:28:11;;;;;;;13.02;7.65;;;;;;;27.99;24.79;97381.38;6195497;28;20136;-71
2023/09/15 10:31:15;;;;;;;12.80;6.90;;;;;;;27.46;25.69;97376.34;6194605;28;20051;-71
2023/09/15 10:34:21;;;;;;;12.20;7.47;;;;;;;26.72;26.75;97381.94;6195224;28;20058;-70
2023/09/15 10:37:25;;;;;;;11.15;6.68;;;;;;;26.34;27.07;97379.38;6195524;28;20042;-69
2023/09/15 10:40:26;;;;;;;10.52;7.40;;;;;;;26.09;27.66;97383.38;6194563;28;20429;-69
2023/09/15 10:43:31;;;;;;;12.40;6.93;;;;;;;25.91;27.69;97381.03;6194879;28;20058;-69
2023/09/15 10:46:44;;;;;;;11.02;6.70;;;;;;;25.89;28.27;97386.59;6194947;28;20050;-70
2023/09/15 10:49:52;;;;;;;11.80;6.07;;;;;;;26.29;27.37;97384.47;6194827;28;20050;-71
2023/09/15 10:53:08;;;;;;;12.73;6.75;;;;;;;26.33;27.73;97380.41;6195039;28;20046;-70
2023/09/15 10:56:14;;;;;;;10.82;6.03;;;;;;;26.11;27.92;97382.16;6194958;28;20038;-71
2023/09/15 10:59:18;;;;;;;10.70;6.15;;;;;;;27.39;26.13;97380.00;6194476;28;20124;-70
2023/09/15 11:02:24;;;;;;;9.93;6.10;;;;;;;30.12;23.31;97379.31;6195112;28;20041;-70
2023/09/15 11:05:30;;;;;;;10.52;5.70;;;;;;;32.06;21.41;97389.03;6195089;28;20038;-69
2023/09/15 11:08:36;;;;;;;10.10;5.50;;;;;;;32.88;20.31;97394.25;6195280;28;20592;-70
2023/09/15 11:11:51;;;;;;;7.43;5.03;;;;;;;32.90;20.48;97394.03;6194860;28;20045;-69
2023/09/15 11:15:02;;;;;;;7.50;3.80;;;;;;;32.05;21.04;97384.66;6194608;28;20066;-69
2023/09/15 11:18:12;;;;;;;7.90;4.68;;;;;;;31.75;21.05;97379.88;6199456;28;20046;-69
2023/09/15 11:21:16;;;;;;;11.82;3.60;;;;;;;30.39;22.58;97380.97;6198992;28;20054;-68
2023/09/15 11:24:18;;;;;;;8.13;3.80;;;;;;;29.08;24.22;97380.72;6198437;28;20050;-69
2023/09/15 11:27:22;;;;;;;6.57;3.40;;;;;;;27.92;25.65;97373.22;6198260;28;20058;-71
2023/09/15 11:30:28;;;;;;;9.13;3.92;;;;;;;27.97;25.94;97375.34;6198791;28;20058;-70
2023/09/15 11:33:35;;;;;;;6.47;3.63;;;;;;;28.56;24.90;97374.03;6198871;28;20413;-70
2023/09/15 11:36:41;;;;;;;5.25;3.83;;;;;;;28.12;25.61;97367.94;6199353;28;20042;-70
2023/09/15 11:39:54;;;;;;;10.52;3.40;;;;;;;27.71;25.83;97368.66;6198399;28;20046;-70
2023/09/15 11:43:00;;;;;;;4.30;3.20;;;;;;;28.65;25.20;97370.97;6197395;28;20050;-69
2023/09/15 11:46:07;;;;;;;8.15;3.58;;;;;;;29.99;23.87;97375.59;6197812;28;20046;-70
2023/09/15 11:49:12;;;;;;;5.95;4.00;;;;;;;31.10;22.91;97373.81;6198521;28;20042;-70
2023/09/15 11:52:19;;;;;;;6.70;3.65;;;;;;;31.73;21.81;97371.09;6198502;28;20054;-68
2023/09/15 11:55:23;;;;;;;10.55;5.72;;;;;;;31.77;21.30;97383.19;6198383;28;20129;-71
2023/09/15 11:58:28;;;;;;;11.60;5.38;;;;;;;31.85;21.54;97373.94;6198089;28;20498;-70
2023/09/15 12:01:32;;;;;;;11.40;5.55;;;;;;;32.50;20.92;97359.94;6198410;28;20046;-70
2023/09/15 12:04:38;;;;;;;9.98;4.72;;;;;;;32.56;20.37;97369.91;6198326;28;20053;-70
2023/09/15 12:07:43;;;;;;;9.60;4.68;;;;;;;32.74;20.65;97370.97;6197737;28;20492;-69
2023/09/15 12:10:47;;;;;;;8.43;4.80;;;;;;;32.92;19.88;97368.19;6197969;28;20054;-69
2023/09/15 12:13:56;;;;;;;10.25;5.68;;;;;;;32.26;20.89;97368.97;6198141;28;20046;-69
2023/09/15 12:17:05;;;;;;;13.20;8.38;;;;;;;31.46;21.59;97361.47;6198325;28;20039;-69
2023/09/15 12:20:07;;;;;;;14.35;6.40;;;;;;;31.17;22.00;97355.59;6198100;28;20390;-69
2023/09/15 12:23:12;;;;;;;;;;;;;;;31.29;21.93;97364.69;6198548;28;20053;-68
2023/09/15 12:26:15;;;;;;;8.90;6.50;;;;;;;30.85;22.19;97358.25;6197117;28;20405;-69
2023/09/15 12:29:21;;;;;;;11.80;7.20;;;;;;;30.16;23.16;97358.88;6197387;28;20049;-69
2023/09/15 12:32:26;;;;;;;13.57;7.43;;;;;;;29.86;24.03;97353.06;6197366;28;20058;-69
2023/09/15 12:35:36;;;;;;;13.95;5.78;;;;;;;29.67;23.70;97357.47;6196929;28;20062;-69
2023/09/15 12:38:37;;;;;;;11.13;5.15;;;;;;;29.14;23.80;97354.69;6197170;28;20046;-69
2023/09/15 12:41:45;;;;;;;11.10;4.80;;;;;;;28.78;24.30;97355.78;6197498;28;20510;-69
2023/09/15 12:44:50;;;;;;;9.80;4.57;;;;;;;28.65;24.41;97356.59;6197383;28;20050;-69
2023/09/15 12:47:57;;;;;;;12.80;4.93;;;;;;;28.55;24.92;97356.94;6197417;28;20042;-69
2023/09/15 12:51:05;;;;;;;7.47;4.75;;;;;;;28.53;25.23;97359.00;6197294;28;20050;-69
2023/09/15 12:54:09;;;;;;;10.65;5.60;;;;;;;28.40;25.23;97356.22;6197180;28;20039;-69
2023/09/15 12:57:13;;;;;;;8.18;4.50;;;;;;;28.07;25.41;97348.75;6195617;28;20508;-69
2023/09/15 13:00:21;;;;;;;9.73;5.47;;;;;;;27.66;26.02;97352.19;6195998;28;20042;-69
2023/09/15 13:03:23;;;;;;;16.08;9.13;;;;;;;27.34;26.46;97353.56;6196354;28;20046;-70
2023/09/15 13:06:30;;;;;;;9.85;6.22;;;;;;;27.15;26.82;97346.94;6196517;28;20054;-68
2023/09/15 13:09:34;;;;;;;7.15;4.70;;;;;;;26.86;27.02;97353.25;6196342;28;20042;-69
2023/09/15 13:12:35;;;;;;;8.63;5.50;;;;;;;26.59;27.39;97349.41;6195862;28;20046;-70
2023/09/15 13:15:41;;;;;;;11.20;6.55;;;;;;;26.31;27.92;97341.97;6195920;28;20042;-70
2023/09/15 13:18:45;;;;;;;21.17;11.65;;;;;;;26.13;28.26;97349.63;6196358;28;20046;-71
2023/09/15 13:21:49;;;;;;;15.25;9.35;;;;;;;25.82;28.97;97358.69;6196774;28;20054;-71
2023/09/15 13:24:53;;;;;;;10.75;6.72;;;;;;;25.43;29.63;97353.47;6195109;28;20043;-71
2023/09/15 13:27:56;;;;;;;10.32;7.03;;;;;;;25.11;30.39;97355.38;6195349;28;20498;-70
2023/09/15 13:31:01;;;;;;;14.55;6.93;;;;;;;24.73;30.58;97346.38;6196505;28;20375;-69
2023/09/15 13:34:03;;;;;;;14.25;6.90;;;;;;;24.29;31.43;97349.56;6195991;28;20498;-69
2023/09/15 13:37:04;;;;;;;11.73;8.02;;;;;;;23.87;32.10;97346.19;6196729;28;20411;-69
2023/09/15 13:40:08;;;;;;;13.82;7.55;;;;;;;23.34;32.50;97344.03;6195938;28;20038;-69
2023/09/15 13:43:14;;;;;;;15.63;8.55;;;;;;;22.89;33.24;97350.69;6196128;28;20565;-69
2023/09/15 13:46:17;;;;;;;17.75;9.93;;;;;;;22.52;33.99;97342.03;6196047;28;20133;-70
2023/09/15 13:49:22;;;;;;;13.82;9.68;;;;;;;22.16;34.24;97338.69;6195763;28;20038;-69
2023/09/15 13:52:28;;;;;;;19.30;10.15;;;;;;;21.86;34.55;97338.22;6195678;28;20545;-69
2023/09/15 13:55:32;;;;;;;17.83;10.00;;;;;;;21.51;35.08;97348.03;6195835;28;20038;-69
2023/09/15 13:58:39;;;;;;;30.45;18.67;;;;;;;21.14;35.93;97350.03;6194963;28;20057;-69
2023/09/15 14:01:47;;;;;;;17.77;11.88;;;;;;;20.96;36.31;97345.53;6195923;28;20054;-68
2023/09/15 14:04:57;;;;;;;19.00;11.80;;;;;;;20.75;37.63;97347.66;6194746;28;20038;-70
2023/09/15 14:08:03;;;;;;;43.28;25.92;;;;;;;20.52;39.23;97347.22;6195770;28;20069;-70
2023/09/15 14:11:08;;;;;;;29.55;14.90;;;;;;;20.32;40.56;97335.78;6195824;28;20585;-70
2023/09/15 14:14:10;;;;;;;25.33;15.18;;;;;;;20.09;42.10;97346.88;6195871;28;20050;-70
2023/09/15 14:17:16;;;;;;;27.88;15.63;;;;;;;19.88;43.53;97339.09;6195769;28;20046;-70
2023/09/15 14:20:21;;;;;;;24.27;14.35;;;;;;;19.74;44.36;97340.41;6194876;28;20073;-71
2023/09/15 14:23:26;;;;;;;27.70;15.63;;;;;;;19.54;45.49;97345.94;6195618;28;20502;-69
2023/09/15 14:26:33;;;;;;;29.02;16.48;;;;;;;19.33;46.65;97343.41;6195105;28;20046;-69